Time;durP1;ratioP1;P1;durP2;ratioP2;P2;SDS_P1;SDS_P2;PMS_P1;PMS_P2;Temp;Humidity;BMP_temperature;BMP_pressure;BME280_temperature;BME280_humidity;BME280_pressure;Samples;Min_cycle;Max_cycle;Signal;HPM_P1;HPM_P2
2021/07/20 00:02:11;;;;;;;12.40;10.23;;;17.80;99.90;;;;;;4935477;29;20296;-49
2021/07/20 00:04:40;;;;;;;11.75;9.82;;;17.80;99.90;;;;;;4935472;29;20240;-49
2021/07/20 00:07:07;;;;;;;11.05;9.93;;;17.80;99.90;;;;;;4935468;29;20219;-50
2021/07/20 00:09:37;;;;;;;12.35;10.00;;;17.80;99.90;;;;;;4935569;29;20260;-51
2021/07/20 00:12:06;;;;;;;10.80;9.38;;;17.80;99.90;;;;;;4935385;29;20258;-54
2021/07/20 00:14:34;;;;;;;10.48;9.40;;;17.80;99.90;;;;;;4935240;29;20259;-49
2021/07/20 00:17:03;;;;;;;11.00;9.63;;;17.70;99.90;;;;;;4935065;29;20303;-47
2021/07/20 00:19:31;;;;;;;12.40;9.93;;;17.70;99.90;;;;;;4935157;29;20212;-51
2021/07/20 00:21:59;;;;;;;11.48;9.70;;;17.70;99.90;;;;;;4935191;29;20275;-54
2021/07/20 00:24:27;;;;;;;12.20;9.95;;;17.70;99.90;;;;;;4935320;29;20615;-51
2021/07/20 00:26:56;;;;;;;13.40;9.73;;;17.60;99.90;;;;;;4935175;29;20336;-53
2021/07/20 00:29:24;;;;;;;11.45;10.25;;;17.60;99.90;;;;;;4935084;29;20252;-51
2021/07/20 00:31:52;;;;;;;10.32;9.23;;;17.50;99.90;;;;;;4934900;29;20303;-47
2021/07/20 00:34:20;;;;;;;10.35;9.35;;;17.40;99.90;;;;;;4934942;29;20302;-49
2021/07/20 00:36:48;;;;;;;12.27;9.95;;;17.40;99.90;;;;;;4935000;29;20216;-51
2021/07/20 00:39:16;;;;;;;12.43;10.40;;;17.30;99.90;;;;;;4934860;29;20307;-51
2021/07/20 00:41:44;;;;;;;13.23;10.93;;;17.30;99.90;;;;;;4934903;29;20637;-50
2021/07/20 00:44:13;;;;;;;12.32;11.00;;;17.20;99.90;;;;;;4934776;29;20307;-52
2021/07/20 00:46:41;;;;;;;10.93;9.82;;;17.10;99.90;;;;;;4934718;29;20223;-53
2021/07/20 00:49:09;;;;;;;12.43;10.05;;;17.10;99.90;;;;;;4935002;29;20654;-53
2021/07/20 00:51:37;;;;;;;12.45;10.48;;;17.00;99.90;;;;;;4934876;29;20212;-54
2021/07/20 00:54:05;;;;;;;14.93;10.70;;;17.00;99.90;;;;;;4934852;29;20303;-50
2021/07/20 00:56:33;;;;;;;12.90;11.02;;;17.00;99.90;;;;;;4934640;29;20236;-53
2021/07/20 00:59:02;;;;;;;11.65;10.48;;;17.00;99.90;;;;;;4935025;29;20208;-53
2021/07/20 01:01:31;;;;;;;14.15;11.02;;;17.00;99.90;;;;;;4934926;29;20379;-52
2021/07/20 01:03:59;;;;;;;14.23;11.13;;;16.90;99.90;;;;;;4934883;29;20251;-54
2021/07/20 01:06:28;;;;;;;14.27;11.50;;;16.80;99.90;;;;;;4935008;29;20208;-51
2021/07/20 01:08:59;;;;;;;11.45;10.13;;;16.80;99.90;;;;;;4934735;29;20275;-52
2021/07/20 01:11:29;;;;;;;13.15;10.65;;;16.80;99.90;;;;;;4934664;29;20212;-52
2021/07/20 01:13:58;;;;;;;14.00;11.15;;;16.90;99.90;;;;;;4934528;29;20223;-51
2021/07/20 01:16:27;;;;;;;10.27;9.13;;;16.90;99.90;;;;;;4934649;29;20236;-52
2021/07/20 01:18:56;;;;;;;11.48;10.10;;;17.00;99.90;;;;;;4934681;29;20307;-52
2021/07/20 01:21:27;;;;;;;12.63;10.13;;;16.90;99.90;;;;;;4934472;29;20651;-49
2021/07/20 01:23:57;;;;;;;14.43;11.45;;;17.00;99.90;;;;;;4934803;29;20638;-50
2021/07/20 01:26:25;;;;;;;13.50;11.30;;;17.00;99.90;;;;;;4934683;29;20208;-50
2021/07/20 01:28:53;;;;;;;13.13;10.25;;;17.00;99.90;;;;;;4934660;29;20212;-49
2021/07/20 01:31:25;;;;;;;13.93;11.35;;;16.90;99.90;;;;;;4938319;29;20236;-47
2021/07/20 01:33:56;;;;;;;11.48;10.05;;;16.80;99.90;;;;;;4938087;29;20559;-51
2021/07/20 01:36:25;;;;;;;16.45;11.57;;;16.80;99.90;;;;;;4937984;29;20710;-50
2021/07/20 01:38:54;;;;;;;12.43;9.55;;;16.70;99.90;;;;;;4938108;29;20672;-50
2021/07/20 01:41:25;;;;;;;12.95;10.18;;;16.60;99.90;;;;;;4937912;29;20668;-53
2021/07/20 01:43:59;;;;;;;12.57;9.63;;;16.60;99.90;;;;;;4937655;29;20333;-54
2021/07/20 01:46:28;;;;;;;15.05;11.25;;;16.60;99.90;;;;;;4937847;29;20262;-52
2021/07/20 01:48:58;;;;;;;12.93;10.32;;;16.60;99.90;;;;;;4938038;29;20212;-53
2021/07/20 01:51:27;;;;;;;14.48;10.18;;;16.50;99.90;;;;;;4937976;29;20243;-49
2021/07/20 01:53:56;;;;;;;15.45;10.77;;;16.40;99.90;;;;;;4937914;29;20243;-54
2021/07/20 01:56:26;;;;;;;12.45;10.50;;;16.40;99.90;;;;;;4937856;29;20224;-53
2021/07/20 01:58:54;;;;;;;21.05;11.65;;;16.30;99.90;;;;;;4937519;29;20212;-49
2021/07/20 02:01:27;;;;;;;13.27;11.27;;;16.30;99.90;;;;;;4937541;29;20212;-49
2021/07/20 02:09:35;;;;;;;12.90;11.07;;;16.20;99.90;;;;;;4936740;29;20207;-55
2021/07/20 02:12:13;;;;;;;15.60;11.32;;;16.10;99.90;;;;;;4937354;29;20635;-52
2021/07/20 02:14:44;;;;;;;17.25;12.77;;;16.10;99.90;;;;;;4937525;29;20243;-54
2021/07/20 02:17:13;;;;;;;14.65;11.38;;;16.10;99.90;;;;;;4937197;29;20322;-55
2021/07/20 02:19:47;;;;;;;14.25;11.15;;;16.10;99.90;;;;;;4937104;29;20232;-50
2021/07/20 02:22:19;;;;;;;17.27;11.95;;;16.10;99.90;;;;;;4937345;29;20220;-51
2021/07/20 02:24:50;;;;;;;21.10;11.85;;;16.10;99.90;;;;;;4937209;29;20687;-49
2021/07/20 02:27:23;;;;;;;15.00;12.02;;;16.00;99.90;;;;;;4937137;29;20298;-46
2021/07/20 02:29:53;;;;;;;14.63;11.93;;;16.00;99.90;;;;;;4937173;29;20218;-49
2021/07/20 02:32:23;;;;;;;12.80;10.80;;;16.00;99.90;;;;;;4936982;29;20707;-51
2021/07/20 02:34:53;;;;;;;15.55;11.75;;;16.00;99.90;;;;;;4937261;29;20269;-53
2021/07/20 02:37:22;;;;;;;15.73;11.63;;;15.90;99.90;;;;;;4937042;29;20319;-53
2021/07/20 02:39:51;;;;;;;18.70;12.07;;;16.00;99.90;;;;;;4937017;29;20667;-52
2021/07/20 02:42:22;;;;;;;13.32;10.98;;;15.90;99.90;;;;;;4935837;29;20645;-48
2021/07/20 02:44:51;;;;;;;14.38;11.45;;;16.00;99.90;;;;;;4936818;29;20658;-48
2021/07/20 02:47:20;;;;;;;14.45;11.25;;;15.90;99.90;;;;;;4937059;29;20259;-50
2021/07/20 02:49:50;;;;;;;12.52;10.98;;;15.90;99.90;;;;;;4937090;29;20222;-52
2021/07/20 02:52:19;;;;;;;16.08;12.23;;;15.90;99.90;;;;;;4936658;29;20254;-49
2021/07/20 02:54:48;;;;;;;16.52;12.77;;;15.90;99.90;;;;;;4936685;29;20687;-47
2021/07/20 02:57:17;;;;;;;16.67;11.02;;;15.90;99.90;;;;;;4936525;29;20664;-50
2021/07/20 02:59:48;;;;;;;16.85;12.07;;;15.90;99.90;;;;;;4936859;29;20280;-54
2021/07/20 03:02:18;;;;;;;13.23;11.05;;;15.90;99.90;;;;;;4936622;29;20262;-48
2021/07/20 03:04:46;;;;;;;15.60;11.95;;;15.90;99.90;;;;;;4936609;29;20263;-46
2021/07/20 03:07:19;;;;;;;14.57;11.70;;;15.90;99.90;;;;;;4936297;29;20216;-47
2021/07/20 03:09:50;;;;;;;16.88;11.52;;;15.90;99.90;;;;;;4936383;29;20247;-48
2021/07/20 03:12:21;;;;;;;17.40;12.70;;;15.90;99.90;;;;;;4936329;29;20298;-49
2021/07/20 03:14:53;;;;;;;16.48;11.75;;;15.90;99.90;;;;;;4936488;29;20226;-49
2021/07/20 03:17:24;;;;;;;14.25;11.75;;;15.80;99.90;;;;;;4936186;29;20236;-48
2021/07/20 03:19:53;;;;;;;16.17;13.07;;;15.80;99.90;;;;;;4936225;29;20238;-48
2021/07/20 03:22:25;;;;;;;14.80;12.15;;;15.80;99.90;;;;;;4936100;29;20238;-48
2021/07/20 03:24:56;;;;;;;16.92;13.25;;;15.80;99.90;;;;;;4936250;29;20664;-50
2021/07/20 03:27:25;;;;;;;16.75;13.05;;;15.80;99.90;;;;;;4936389;29;20287;-51
2021/07/20 03:29:54;;;;;;;14.27;11.60;;;15.80;99.90;;;;;;4936196;29;20303;-48
2021/07/20 03:32:24;;;;;;;13.77;11.52;;;15.80;99.90;;;;;;4936073;29;20251;-48
2021/07/20 03:34:52;;;;;;;16.98;13.18;;;15.70;99.90;;;;;;4936009;29;20303;-51
2021/07/20 03:37:22;;;;;;;16.75;12.75;;;15.70;99.90;;;;;;4936069;29;20326;-51
2021/07/20 03:39:53;;;;;;;15.63;12.35;;;15.70;99.90;;;;;;4936231;29;20218;-52
2021/07/20 03:42:22;;;;;;;18.30;14.57;;;15.70;99.90;;;;;;4936080;29;20754;-52
2021/07/20 03:44:50;;;;;;;18.77;16.20;;;15.70;99.90;;;;;;4935805;29;20291;-52
2021/07/20 03:47:20;;;;;;;20.60;13.10;;;15.70;99.90;;;;;;4935454;29;20743;-48
2021/07/20 03:49:48;;;;;;;21.63;14.95;;;15.70;99.90;;;;;;4935807;29;20254;-49
2021/07/20 03:52:16;;;;;;;19.90;14.23;;;15.70;99.90;;;;;;4935520;29;20295;-54
2021/07/20 03:54:45;;;;;;;16.55;13.82;;;15.80;99.90;;;;;;4935632;29;20307;-54
2021/07/20 03:57:17;;;;;;;22.80;13.70;;;15.70;99.90;;;;;;4935491;29;20531;-51
2021/07/20 03:59:46;;;;;;;18.13;14.25;;;15.70;99.90;;;;;;4935496;29;20223;-55
2021/07/20 04:02:15;;;;;;;19.67;14.68;;;15.70;99.90;;;;;;4935455;29;20677;-52
2021/07/20 04:04:45;;;;;;;20.60;14.02;;;15.80;99.90;;;;;;4935471;29;20567;-51
2021/07/20 04:07:16;;;;;;;21.08;14.18;;;15.80;99.90;;;;;;4935230;29;20300;-51
2021/07/20 04:09:45;;;;;;;17.35;14.25;;;15.90;99.90;;;;;;4935514;29;20731;-51
2021/07/20 04:12:14;;;;;;;17.00;14.85;;;15.90;99.90;;;;;;4935401;29;20619;-51
2021/07/20 04:14:42;;;;;;;21.05;14.70;;;15.90;99.90;;;;;;4935467;29;20235;-52
2021/07/20 04:17:12;;;;;;;17.17;14.00;;;16.00;99.90;;;;;;4935326;29;20323;-52
2021/07/20 04:19:41;;;;;;;17.15;13.48;;;16.00;99.90;;;;;;4935468;29;20212;-52
2021/07/20 04:22:13;;;;;;;14.13;12.02;;;16.00;99.90;;;;;;4935399;29;20215;-51
2021/07/20 04:24:43;;;;;;;15.98;13.07;;;16.10;99.90;;;;;;4935338;29;20509;-50
2021/07/20 04:27:13;;;;;;;16.90;13.18;;;16.20;99.90;;;;;;4935270;29;20211;-50
2021/07/20 04:29:43;;;;;;;14.90;13.30;;;16.20;99.90;;;;;;4935387;29;20298;-53
2021/07/20 04:32:11;;;;;;;16.30;12.55;;;16.20;99.90;;;;;;4935294;29;20628;-53
2021/07/20 04:34:40;;;;;;;14.27;12.15;;;16.20;99.90;;;;;;4935146;29;20657;-55
2021/07/20 04:37:08;;;;;;;14.43;12.65;;;16.30;99.90;;;;;;4935043;29;20451;-52
2021/07/20 04:39:38;;;;;;;16.10;12.75;;;16.30;99.90;;;;;;4935027;29;20577;-51
2021/07/20 04:42:08;;;;;;;15.23;13.55;;;16.30;99.90;;;;;;4935055;29;20727;-52
2021/07/20 04:44:37;;;;;;;16.20;12.77;;;16.40;99.90;;;;;;4934965;29;20763;-52
2021/07/20 04:47:05;;;;;;;14.95;12.50;;;16.40;99.90;;;;;;4934760;29;20318;-51
2021/07/20 04:49:34;;;;;;;14.13;12.38;;;16.40;99.90;;;;;;4934856;29;20212;-54
2021/07/20 04:52:03;;;;;;;16.52;14.02;;;16.40;99.90;;;;;;4934716;29;20743;-52
2021/07/20 04:54:32;;;;;;;17.67;14.05;;;16.40;99.90;;;;;;4935047;29;20295;-50
2021/07/20 04:57:01;;;;;;;15.73;11.95;;;16.60;99.90;;;;;;4934905;29;20318;-52
2021/07/20 04:59:30;;;;;;;15.15;12.52;;;16.60;99.90;;;;;;4934965;29;20219;-50
2021/07/20 05:01:59;;;;;;;15.32;12.13;;;16.80;99.90;;;;;;4934937;29;20316;-49
2021/07/20 05:04:28;;;;;;;15.02;13.20;;;16.80;99.90;;;;;;4935733;29;20695;-51
2021/07/20 05:06:57;;;;;;;16.23;12.30;;;16.90;99.90;;;;;;4938971;29;20214;-52
2021/07/20 05:09:26;;;;;;;16.67;12.40;;;17.00;99.90;;;;;;4938571;29;20235;-50
2021/07/20 05:11:54;;;;;;;13.68;12.13;;;17.00;99.90;;;;;;4939078;29;20216;-50
2021/07/20 05:14:24;;;;;;;14.60;12.20;;;17.10;99.90;;;;;;4938459;29;20284;-47
2021/07/20 05:16:53;;;;;;;15.98;12.07;;;17.30;99.90;;;;;;4938036;29;20216;-48
2021/07/20 05:19:21;;;;;;;15.63;12.32;;;17.40;99.90;;;;;;4938616;29;20235;-49
2021/07/20 05:21:50;;;;;;;20.98;13.63;;;17.40;99.90;;;;;;4938162;29;20254;-49
2021/07/20 05:24:18;;;;;;;14.95;12.57;;;17.50;99.90;;;;;;4938149;29;20290;-51
2021/07/20 05:26:46;;;;;;;17.35;15.15;;;17.60;99.90;;;;;;4937822;29;20212;-49
2021/07/20 05:29:16;;;;;;;16.52;12.68;;;17.70;99.90;;;;;;4938031;29;20220;-48
2021/07/20 05:31:48;;;;;;;14.35;12.60;;;17.70;99.90;;;;;;4938230;29;20246;-49
2021/07/20 05:34:17;;;;;;;14.52;11.75;;;17.70;99.90;;;;;;4938435;29;20220;-48
2021/07/20 05:36:46;;;;;;;17.45;12.43;;;17.80;99.90;;;;;;4938310;29;20212;-51
2021/07/20 05:39:14;;;;;;;15.45;12.30;;;17.90;99.90;;;;;;4937972;29;20704;-51
2021/07/20 05:41:43;;;;;;;13.98;11.48;;;18.00;99.90;;;;;;4938108;29;20307;-51
2021/07/20 05:44:12;;;;;;;14.20;12.45;;;18.10;99.90;;;;;;4938067;29;20212;-50
2021/07/20 05:46:41;;;;;;;14.10;11.75;;;18.20;99.90;;;;;;4938046;29;20307;-49
2021/07/20 05:49:11;;;;;;;14.90;12.05;;;18.30;99.90;;;;;;4938039;29;20239;-49
2021/07/20 05:51:41;;;;;;;14.57;12.57;;;18.30;99.90;;;;;;4937885;29;20307;-52
2021/07/20 05:54:10;;;;;;;18.08;13.23;;;18.40;99.90;;;;;;4937821;29;20212;-51
2021/07/20 05:56:38;;;;;;;14.25;12.13;;;18.50;99.90;;;;;;4937408;29;20219;-52
2021/07/20 05:59:07;;;;;;;15.52;12.88;;;18.50;99.90;;;;;;4937674;29;20228;-50
2021/07/20 06:01:35;;;;;;;14.98;12.43;;;18.60;99.90;;;;;;4937805;29;20262;-52
2021/07/20 06:04:04;;;;;;;17.13;12.07;;;18.50;99.90;;;;;;4937714;29;20247;-49
2021/07/20 06:06:33;;;;;;;16.67;11.63;;;18.50;99.90;;;;;;4937577;29;20299;-53
2021/07/20 06:09:02;;;;;;;12.30;11.05;;;18.60;99.90;;;;;;4937167;29;20236;-50
2021/07/20 06:11:33;;;;;;;15.48;11.40;;;18.70;99.90;;;;;;4937376;29;20376;-48
2021/07/20 06:14:03;;;;;;;17.60;11.95;;;18.70;99.90;;;;;;4937318;29;20208;-49
2021/07/20 06:16:33;;;;;;;14.60;13.07;;;18.80;99.90;;;;;;4937177;29;20226;-49
2021/07/20 06:19:01;;;;;;;14.63;12.82;;;18.80;99.90;;;;;;4937014;29;20239;-54
2021/07/20 06:21:33;;;;;;;14.32;12.35;;;18.90;99.90;;;;;;4937117;29;20222;-52
2021/07/20 06:24:03;;;;;;;13.02;10.80;;;18.80;99.90;;;;;;4937108;29;20607;-49
2021/07/20 06:26:32;;;;;;;14.68;11.20;;;18.80;99.90;;;;;;4937300;29;20208;-53
2021/07/20 06:29:02;;;;;;;13.25;11.85;;;18.80;99.90;;;;;;4937036;29;20691;-50
2021/07/20 06:31:31;;;;;;;13.75;12.20;;;18.80;99.90;;;;;;4937007;29;20307;-50
2021/07/20 06:34:00;;;;;;;15.25;11.68;;;18.80;99.90;;;;;;4936857;29;20212;-50
2021/07/20 06:36:28;;;;;;;13.40;11.23;;;18.90;99.90;;;;;;4937353;29;20267;-49
2021/07/20 06:38:56;;;;;;;14.75;11.18;;;19.00;99.90;;;;;;4936902;29;20228;-50
2021/07/20 06:41:25;;;;;;;19.80;11.35;;;19.10;99.90;;;;;;4936929;29;20212;-52
2021/07/20 06:43:54;;;;;;;16.27;12.15;;;19.20;99.90;;;;;;4936920;29;20646;-53
2021/07/20 06:46:24;;;;;;;14.38;12.18;;;19.20;99.90;;;;;;4937022;29;20303;-51
2021/07/20 06:48:53;;;;;;;12.90;11.60;;;19.30;99.90;;;;;;4937036;29;20219;-54
2021/07/20 06:51:21;;;;;;;13.98;11.45;;;19.30;99.90;;;;;;4936991;29;20208;-52
2021/07/20 06:53:50;;;;;;;15.93;11.38;;;19.40;99.90;;;;;;4936533;29;20232;-51
2021/07/20 06:56:24;;;;;;;15.02;10.80;;;19.40;99.90;;;;;;4936621;29;20304;-48
2021/07/20 06:58:54;;;;;;;17.83;11.95;;;19.50;99.90;;;;;;4936575;29;20545;-49
2021/07/20 07:01:23;;;;;;;14.35;11.50;;;19.50;99.90;;;;;;4936653;29;20306;-52
2021/07/20 07:03:57;;;;;;;12.18;10.88;;;19.50;99.90;;;;;;4936581;29;20212;-51
2021/07/20 07:06:27;;;;;;;12.20;10.90;;;19.60;99.90;;;;;;4936407;29;20212;-51
2021/07/20 07:08:56;;;;;;;13.82;12.02;;;19.70;99.90;;;;;;4936299;29;20239;-53
2021/07/20 07:11:26;;;;;;;14.27;11.18;;;19.80;99.90;;;;;;4936343;29;20231;-48
2021/07/20 07:13:56;;;;;;;17.90;11.02;;;19.90;99.90;;;;;;4936428;29;20305;-49
2021/07/20 07:16:24;;;;;;;13.82;10.25;;;20.00;99.90;;;;;;4936728;29;20216;-49
2021/07/20 07:18:53;;;;;;;12.98;10.50;;;20.10;99.90;;;;;;4936048;29;20643;-52
2021/07/20 07:21:22;;;;;;;13.13;10.43;;;20.20;99.90;;;;;;4936294;29;20299;-54
2021/07/20 07:23:52;;;;;;;11.23;9.80;;;20.10;99.90;;;;;;4936278;29;20258;-52
2021/07/20 07:26:21;;;;;;;12.23;10.35;;;20.20;99.90;;;;;;4936178;29;20307;-53
2021/07/20 07:28:52;;;;;;;12.80;10.80;;;20.20;99.90;;;;;;4935609;29;20747;-50
2021/07/20 07:31:22;;;;;;;13.82;10.77;;;20.30;99.90;;;;;;4935880;29;20615;-51
2021/07/20 07:33:51;;;;;;;14.25;10.73;;;20.40;99.90;;;;;;4936005;29;20314;-52
2021/07/20 07:36:21;;;;;;;14.45;10.75;;;20.40;99.90;;;;;;4936046;29;20215;-49
2021/07/20 07:38:50;;;;;;;13.65;11.25;;;20.50;99.90;;;;;;4935850;29;20256;-51
2021/07/20 07:41:18;;;;;;;16.48;11.07;;;20.70;99.90;;;;;;4936118;29;20222;-52
2021/07/20 07:43:47;;;;;;;11.07;9.98;;;20.80;99.90;;;;;;4935976;29;20212;-53
2021/07/20 07:46:18;;;;;;;12.75;10.85;;;21.00;99.90;;;;;;4935664;29;20688;-51
2021/07/20 07:48:47;;;;;;;14.35;10.55;;;21.00;99.90;;;;;;4935552;29;20219;-52
2021/07/20 07:51:15;;;;;;;13.25;9.98;;;21.20;99.90;;;;;;4935467;29;20307;-49
2021/07/20 07:53:43;;;;;;;10.70;9.57;;;21.30;99.90;;;;;;4935713;29;20300;-49
2021/07/20 07:56:12;;;;;;;12.45;10.73;;;21.30;99.90;;;;;;4935560;29;20298;-51
2021/07/20 07:58:41;;;;;;;12.10;10.55;;;21.30;99.90;;;;;;4935370;29;20271;-53
2021/07/20 08:01:10;;;;;;;13.43;9.50;;;21.30;99.90;;;;;;4935571;29;20624;-49
2021/07/20 08:03:43;;;;;;;11.75;9.95;;;21.40;99.90;;;;;;4935163;29;20220;-53
2021/07/20 08:06:19;;;;;;;13.50;9.35;;;21.50;99.90;;;;;;4935318;29;20290;-50
2021/07/20 08:09:08;;;;;;;10.70;9.60;;;21.60;99.90;;;;;;4934942;29;20247;-49
2021/07/20 08:11:36;;;;;;;13.15;10.40;;;21.70;99.90;;;;;;4935237;29;20251;-53
2021/07/20 08:14:06;;;;;;;11.40;9.50;;;21.80;99.90;;;;;;4935415;29;20602;-50
2021/07/20 08:16:39;;;;;;;12.73;9.35;;;21.80;99.90;;;;;;4935658;29;20267;-50
2021/07/20 08:19:08;;;;;;;12.57;9.25;;;21.80;99.70;;;;;;4935429;29;20665;-50
2021/07/20 08:21:38;;;;;;;12.75;9.77;;;21.80;99.50;;;;;;4935443;29;20302;-47
2021/07/20 08:24:06;;;;;;;19.17;10.30;;;22.00;99.20;;;;;;4935277;29;20235;-49
2021/07/20 08:26:43;;;;;;;11.40;9.50;;;22.10;98.90;;;;;;4935274;29;20271;-48
2021/07/20 08:29:16;;;;;;;11.95;9.48;;;22.10;98.60;;;;;;4935693;29;20315;-55
2021/07/20 08:31:49;;;;;;;14.48;9.55;;;22.20;98.40;;;;;;4935344;29;20217;-48
2021/07/20 08:34:21;;;;;;;10.75;8.63;;;22.30;98.10;;;;;;4935360;29;20216;-50
2021/07/20 08:36:53;;;;;;;12.52;9.23;;;22.40;98.00;;;;;;4935143;29;20256;-55
2021/07/20 08:39:25;;;;;;;16.42;9.88;;;22.40;97.80;;;;;;4934643;29;20318;-51
2021/07/20 08:42:07;;;;;;;12.52;9.50;;;22.40;98.00;;;;;;4935274;29;20307;-48
2021/07/20 08:45:08;;;;;;;10.05;9.07;;;22.40;97.80;;;;;;4935088;29;20236;-48
2021/07/20 08:48:00;;;;;;;11.77;8.52;;;22.40;97.20;;;;;;4876245;29;20225;-52
2021/07/20 08:50:30;;;;;;;11.82;8.48;;;22.50;97.20;;;;;;4926606;29;20303;-51
2021/07/20 08:53:18;;;;;;;10.25;9.13;;;22.30;97.40;;;;;;4934908;29;20631;-51
2021/07/20 08:55:50;;;;;;;11.25;9.20;;;22.30;97.50;;;;;;4934752;29;20243;-50
2021/07/20 08:58:23;;;;;;;11.32;9.50;;;22.20;97.60;;;;;;4934881;29;20274;-52
2021/07/20 09:00:54;;;;;;;13.20;8.68;;;22.30;97.40;;;;;;4934804;29;20242;-51
2021/07/20 09:03:48;;;;;;;11.10;8.52;;;22.40;97.50;;;;;;4935029;29;20212;-54
2021/07/20 09:06:20;;;;;;;11.45;8.98;;;22.60;96.80;;;;;;4934795;29;20262;-53
2021/07/20 09:08:54;;;;;;;12.18;8.85;;;22.60;97.00;;;;;;4934665;29;20335;-53
2021/07/20 09:11:34;;;;;;;12.30;8.45;;;22.60;97.00;;;;;;4934990;29;20284;-51
2021/07/20 09:14:10;;;;;;;9.00;8.10;;;22.70;96.90;;;;;;4934569;29;20668;-52
2021/07/20 09:16:43;;;;;;;11.55;8.40;;;22.80;96.30;;;;;;4934671;29;20265;-53
2021/07/20 09:19:16;;;;;;;13.30;10.57;;;22.90;96.00;;;;;;4934706;29;20250;-52
2021/07/20 09:21:49;;;;;;;10.82;9.15;;;23.00;95.40;;;;;;4934842;29;20239;-53
2021/07/20 09:24:29;;;;;;;10.30;9.15;;;23.10;95.00;;;;;;4935191;29;20300;-52
2021/07/20 09:27:07;;;;;;;10.23;9.20;;;23.20;94.80;;;;;;4934543;29;20239;-52
2021/07/20 09:29:38;;;;;;;9.50;8.50;;;23.30;94.60;;;;;;4934743;29;20270;-52
2021/07/20 09:32:23;;;;;;;11.23;8.38;;;23.40;94.30;;;;;;4934476;29;20303;-53
2021/07/20 09:35:03;;;;;;;9.90;8.88;;;23.40;94.00;;;;;;4934495;29;20259;-52
2021/07/20 09:37:40;;;;;;;11.23;9.25;;;23.40;94.10;;;;;;4934511;29;20262;-52
2021/07/20 09:40:23;;;;;;;10.60;9.50;;;23.30;94.00;;;;;;4934503;29;20314;-53
2021/07/20 09:43:04;;;;;;;11.38;9.65;;;23.30;94.10;;;;;;4934374;29;20680;-52
2021/07/20 09:45:39;;;;;;;11.73;9.20;;;23.20;94.10;;;;;;4935295;29;20247;-50
2021/07/20 09:48:22;;;;;;;11.82;9.73;;;23.20;94.30;;;;;;4935268;29;20247;-48
2021/07/20 09:51:00;;;;;;;12.93;9.27;;;23.30;94.00;;;;;;4935812;29;20219;-52
2021/07/20 09:53:51;;;;;;;9.25;8.32;;;23.30;93.50;;;;;;4938306;29;20219;-51
2021/07/20 09:56:45;;;;;;;11.63;10.27;;;23.40;93.50;;;;;;4937987;29;20218;-53
2021/07/20 09:59:50;;;;;;;10.82;9.73;;;23.40;93.60;;;;;;4937920;29;20216;-48
2021/07/20 10:02:26;;;;;;;9.35;8.27;;;23.50;93.50;;;;;;4928920;29;20220;-47
2021/07/20 10:05:04;;;;;;;10.52;8.88;;;23.60;93.40;;;;;;4937893;29;20233;-52
2021/07/20 10:07:38;;;;;;;10.80;9.10;;;23.70;93.20;;;;;;4937877;29;20240;-52
2021/07/20 10:10:12;;;;;;;14.63;9.38;;;23.60;93.30;;;;;;4938407;29;20294;-50
2021/07/20 10:12:55;;;;;;;11.68;9.75;;;23.60;93.30;;;;;;4937794;29;20303;-52
2021/07/20 10:15:34;;;;;;;11.90;10.70;;;23.60;93.30;;;;;;4937947;29;20582;-54
2021/07/20 10:18:08;;;;;;;11.75;10.35;;;23.60;93.10;;;;;;4937602;29;20216;-51
2021/07/20 10:20:41;;;;;;;15.85;10.80;;;23.70;93.10;;;;;;4937790;29;20234;-50
2021/07/20 10:23:18;;;;;;;12.90;10.95;;;23.70;92.70;;;;;;4937377;29;20302;-51
2021/07/20 10:25:49;;;;;;;12.52;10.45;;;23.80;92.50;;;;;;4937983;29;20303;-51
2021/07/20 10:28:25;;;;;;;13.48;11.48;;;23.80;92.40;;;;;;4937468;29;20246;-50
2021/07/20 10:31:04;;;;;;;11.32;10.07;;;23.80;92.10;;;;;;4937307;29;20234;-49
2021/07/20 10:33:39;;;;;;;12.30;10.75;;;23.80;92.20;;;;;;4937361;29;20633;-50
2021/07/20 10:36:13;;;;;;;11.43;9.57;;;23.80;92.30;;;;;;4937151;29;20250;-51
2021/07/20 10:38:45;;;;;;;11.02;10.00;;;23.80;92.20;;;;;;4937383;29;20295;-49
2021/07/20 10:41:19;;;;;;;11.73;9.77;;;23.90;92.10;;;;;;4937065;29;20232;-49
2021/07/20 10:43:56;;;;;;;11.25;9.38;;;24.00;92.10;;;;;;4937149;29;20212;-52
2021/07/20 10:46:29;;;;;;;11.60;10.23;;;24.20;91.90;;;;;;4937181;29;20220;-50
2021/07/20 10:49:06;;;;;;;11.07;9.98;;;24.30;91.70;;;;;;4937242;29;20216;-53
2021/07/20 10:51:41;;;;;;;12.80;10.05;;;24.50;91.50;;;;;;4937323;29;20236;-46
2021/07/20 10:54:19;;;;;;;12.13;10.00;;;24.70;91.20;;;;;;4937169;29;20247;-50
2021/07/20 10:56:55;;;;;;;12.98;10.50;;;24.80;90.90;;;;;;4937027;29;20243;-51
2021/07/20 10:59:52;;;;;;;11.50;10.07;;;24.90;90.60;;;;;;4937109;29;20307;-50
2021/07/20 11:02:31;;;;;;;11.48;10.38;;;25.00;90.20;;;;;;4935648;29;20239;-46
2021/07/20 11:05:02;;;;;;;11.82;10.63;;;25.10;90.10;;;;;;4937024;29;20271;-50
2021/07/20 11:07:35;;;;;;;14.65;10.90;;;25.20;90.00;;;;;;4936663;29;20236;-50
2021/07/20 11:10:08;;;;;;;12.10;10.90;;;25.40;89.40;;;;;;4936849;29;20307;-51
2021/07/20 11:12:38;;;;;;;11.00;9.90;;;25.50;88.90;;;;;;4936681;29;20240;-53
2021/07/20 11:15:08;;;;;;;14.25;11.68;;;25.60;88.60;;;;;;4937055;29;20310;-53
2021/07/20 11:17:39;;;;;;;13.48;11.32;;;25.80;88.20;;;;;;4936394;29;20306;-51
2021/07/20 11:20:11;;;;;;;11.30;10.23;;;25.70;88.10;;;;;;4936660;29;20255;-50
2021/07/20 11:22:41;;;;;;;11.70;10.50;;;25.50;88.50;;;;;;4936496;29;20226;-50
2021/07/20 11:25:11;;;;;;;14.18;11.30;;;25.50;88.50;;;;;;4936409;29;20692;-54
2021/07/20 11:27:43;;;;;;;12.98;11.57;;;25.50;88.00;;;;;;4936098;29;20275;-50
2021/07/20 11:30:14;;;;;;;13.35;11.65;;;25.40;87.70;;;;;;4936131;29;20600;-53
2021/07/20 11:32:48;;;;;;;12.27;10.98;;;25.40;88.10;;;;;;4936003;29;20602;-51
2021/07/20 11:35:19;;;;;;;13.80;12.27;;;25.40;87.60;;;;;;4936002;29;20243;-52
2021/07/20 11:37:51;;;;;;;15.57;11.73;;;25.40;87.40;;;;;;4936014;29;20303;-52
2021/07/20 11:40:25;;;;;;;14.00;12.55;;;25.40;87.00;;;;;;4935740;29;22534;-52
2021/07/20 11:42:57;;;;;;;14.63;12.82;;;25.50;86.60;;;;;;4936190;29;20299;-52
2021/07/20 11:45:29;;;;;;;11.88;10.68;;;25.80;86.20;;;;;;4935953;29;20236;-48
2021/07/20 11:48:04;;;;;;;12.77;11.25;;;26.00;85.80;;;;;;4935902;29;20255;-49
2021/07/20 11:50:36;;;;;;;15.05;11.80;;;26.00;84.80;;;;;;4935818;29;20294;-50
2021/07/20 11:53:14;;;;;;;12.52;10.88;;;25.80;84.80;;;;;;4935700;29;20212;-50
2021/07/20 11:55:50;;;;;;;11.93;10.88;;;25.60;84.60;;;;;;4935793;29;20429;-50
2021/07/20 11:58:57;;;;;;;14.40;10.95;;;25.60;84.90;;;;;;4935535;29;20219;-51
2021/07/20 12:02:18;;;;;;;11.93;10.77;;;25.80;84.20;;;;;;4899023;29;20324;-49
2021/07/20 12:05:12;;;;;;;13.38;12.07;;;26.00;83.20;;;;;;4935573;29;20212;-52
2021/07/20 12:07:46;;;;;;;14.88;11.85;;;26.30;81.60;;;;;;4935461;29;20303;-48
2021/07/20 12:10:26;;;;;;;12.68;11.38;;;26.30;81.70;;;;;;4935642;29;20216;-53
2021/07/20 12:12:56;;;;;;;13.93;11.98;;;26.20;81.20;;;;;;4935357;29;20211;-47
2021/07/20 12:15:27;;;;;;;15.73;12.80;;;26.10;81.40;;;;;;4935305;29;20218;-50
2021/07/20 12:17:58;;;;;;;13.43;12.13;;;25.80;81.50;;;;;;4935180;29;20299;-51
2021/07/20 12:20:26;;;;;;;14.93;13.32;;;25.60;81.70;;;;;;4935323;29;20240;-47
2021/07/20 12:22:56;;;;;;;13.30;11.80;;;25.40;81.70;;;;;;4935343;29;20212;-48
2021/07/20 12:25:25;;;;;;;16.80;12.00;;;25.20;82.10;;;;;;4935122;29;20329;-51
2021/07/20 12:27:54;;;;;;;13.45;12.15;;;25.20;82.20;;;;;;4935179;29;20208;-48
2021/07/20 12:30:24;;;;;;;14.02;12.70;;;25.30;81.40;;;;;;4934938;29;20247;-50
2021/07/20 12:32:53;;;;;;;13.00;11.73;;;25.30;81.20;;;;;;4934908;29;20698;-49
2021/07/20 12:35:23;;;;;;;13.55;12.20;;;25.40;81.60;;;;;;4935176;29;20212;-51
2021/07/20 12:38:02;;;;;;;15.88;13.25;;;25.50;80.70;;;;;;4934975;29;20231;-47
2021/07/20 12:40:30;;;;;;;14.13;12.73;;;25.60;80.70;;;;;;4935158;29;20216;-50
2021/07/20 12:43:08;;;;;;;13.90;12.32;;;25.70;80.30;;;;;;4935023;29;20672;-50
2021/07/20 12:45:40;;;;;;;25.48;22.98;;;25.80;79.90;;;;;;4935023;29;20311;-49
2021/07/20 12:48:23;;;;;;;23.20;20.95;;;25.80;79.20;;;;;;4934983;29;20374;-50
2021/07/20 12:50:53;;;;;;;35.45;31.83;;;25.90;78.50;;;;;;4934616;29;20250;-52
2021/07/20 12:53:21;;;;;;;25.05;22.00;;;26.00;78.60;;;;;;4934689;29;20287;-53
2021/07/20 12:55:49;;;;;;;20.95;18.70;;;26.30;77.70;;;;;;4934985;29;20287;-53
2021/07/20 12:58:20;;;;;;;17.83;16.02;;;26.50;76.90;;;;;;4934711;29;20216;-54